createdAt,value
2019-02-19T00:00:16.949Z,12.3
2019-02-19T00:05:26.964Z,12.6
2019-02-19T00:10:17.520Z,9.1
2019-02-19T00:15:17.417Z,12.2
2019-02-19T00:20:17.541Z,8
2019-02-19T00:25:17.436Z,10.9
2019-02-19T00:30:20.410Z,10.1
2019-02-19T00:35:17.377Z,10.6
2019-02-19T00:40:17.546Z,12.4
2019-02-19T00:45:19.035Z,8
2019-02-19T00:50:16.996Z,7.9
2019-02-19T00:55:17.007Z,13.6
2019-02-19T01:00:17.463Z,12.6
2019-02-19T01:05:17.638Z,12.6
2019-02-19T01:10:19.382Z,8.8
2019-02-19T01:15:25.831Z,13.9
2019-02-19T01:20:16.917Z,9.7
2019-02-19T01:25:22.107Z,14.8
2019-02-19T01:30:17.591Z,14.9
2019-02-19T01:35:17.734Z,12
2019-02-19T01:40:16.881Z,15.3
2019-02-19T01:45:17.805Z,12.2
2019-02-19T01:50:18.822Z,14.9
2019-02-19T01:55:17.992Z,15.2
2019-02-19T02:00:16.872Z,12.6
2019-02-19T02:05:22.824Z,15.7
2019-02-19T02:10:16.966Z,15.3
2019-02-19T02:15:16.920Z,15.6
2019-02-19T02:20:22.080Z,8.5
2019-02-19T02:25:17.035Z,17.6
2019-02-19T02:30:16.950Z,17.9
2019-02-19T02:35:16.900Z,18.1
2019-02-19T02:40:17.274Z,15.9
2019-02-19T02:45:22.755Z,18.2
2019-02-19T02:50:17.674Z,16.5
2019-02-19T02:55:17.625Z,19.9
2019-02-19T03:00:17.595Z,18.9
2019-02-19T03:05:17.775Z,19.6
2019-02-19T03:10:16.945Z,20.6
2019-02-19T03:15:22.034Z,21
2019-02-19T03:20:17.155Z,14
2019-02-19T03:25:17.329Z,21.5
2019-02-19T03:30:22.265Z,14.5
2019-02-19T03:35:17.290Z,16.9
2019-02-19T03:40:22.551Z,24.3
2019-02-19T03:45:22.714Z,24.5
2019-02-19T03:50:17.845Z,24.7
2019-02-19T03:55:17.726Z,23.1
2019-02-19T04:00:17.688Z,27.1
2019-02-19T04:05:17.617Z,27.8
2019-02-19T04:10:17.753Z,21.6
2019-02-19T04:15:17.661Z,27.1
2019-02-19T04:20:18.025Z,27.7
2019-02-19T04:25:17.176Z,24.8
2019-02-19T04:30:17.424Z,21.4
2019-02-19T04:35:17.896Z,18
2019-02-19T04:40:23.135Z,28.8
2019-02-19T04:45:17.047Z,29.4
2019-02-19T04:50:17.194Z,27.2
2019-02-19T04:55:17.340Z,20.9
2019-02-19T05:00:17.697Z,19.3
2019-02-19T05:05:17.640Z,27.4
2019-02-19T05:10:22.854Z,27.3
2019-02-19T05:15:28.175Z,27.9
2019-02-19T05:20:22.269Z,25.7
2019-02-19T05:25:17.167Z,19
2019-02-19T05:30:17.362Z,28.1
2019-02-19T05:35:17.295Z,30.7
2019-02-19T05:40:17.719Z,29.1
2019-02-19T05:45:17.607Z,18.7
2019-02-19T05:50:17.537Z,31.2
2019-02-19T05:55:17.498Z,29.3
2019-02-19T06:00:22.438Z,29.7
2019-02-19T06:05:17.357Z,29.4
2019-02-19T06:10:17.537Z,28.7
2019-02-19T06:15:17.556Z,27.8
2019-02-19T06:20:17.697Z,26
2019-02-19T06:25:18.019Z,20.5
2019-02-19T06:30:16.966Z,23.8
2019-02-19T06:35:16.898Z,22.2
2019-02-19T06:40:17.077Z,21.6
2019-02-19T06:45:16.999Z,18.7
2019-02-19T06:50:16.886Z,15.2
2019-02-19T06:55:16.913Z,20.4
2019-02-19T07:00:16.870Z,19
2019-02-19T07:05:18.066Z,19.2
2019-02-19T07:10:17.220Z,15.1
2019-02-19T07:15:27.127Z,10.2
2019-02-19T07:20:17.228Z,18.6
2019-02-19T07:25:17.129Z,17.8
2019-02-19T07:30:22.152Z,10.1
2019-02-19T07:35:24.951Z,11.9
2019-02-19T07:40:17.775Z,16.8
2019-02-19T07:45:17.708Z,15.8
2019-02-19T07:50:17.693Z,14.6
2019-02-19T07:55:17.680Z,15.6
2019-02-19T08:00:17.596Z,15.2
2019-02-19T08:05:17.495Z,10.2
2019-02-19T08:10:17.606Z,9.4
2019-02-19T08:15:17.536Z,15.9
2019-02-19T08:20:17.625Z,11.8
2019-02-19T08:25:17.561Z,15.1
2019-02-19T08:30:17.738Z,15.3
2019-02-19T08:35:20.722Z,15.7
2019-02-19T08:40:16.826Z,15.2
2019-02-19T08:45:18.819Z,16.8
2019-02-19T08:50:17.835Z,12.7
2019-02-19T08:55:22.770Z,9.6
2019-02-19T09:00:17.716Z,15.7
2019-02-19T09:05:17.643Z,16.4
2019-02-19T09:10:17.759Z,15.6
2019-02-19T09:15:17.670Z,16.1
2019-02-19T09:20:17.996Z,14.7
2019-02-19T09:25:16.886Z,14.6
2019-02-19T09:30:17.818Z,13.8
2019-02-19T09:35:17.736Z,14.6
2019-02-19T09:40:21.877Z,10.9
2019-02-19T09:45:17.804Z,14.1
2019-02-19T09:50:17.798Z,12.6
2019-02-19T09:55:17.845Z,12.8
2019-02-19T10:00:17.805Z,12.2
2019-02-19T10:05:18.011Z,11.2
2019-02-19T10:10:17.155Z,11.8
2019-02-19T10:15:17.076Z,11.5
2019-02-19T10:20:17.234Z,11
2019-02-19T10:25:17.478Z,11.2
2019-02-19T10:30:17.469Z,10.4
2019-02-19T10:35:17.424Z,10.4
2019-02-19T10:40:17.603Z,10.3
2019-02-19T10:45:17.783Z,9.9
2019-02-19T10:50:17.714Z,10.7
2019-02-19T10:55:17.636Z,6.9
2019-02-19T11:00:17.615Z,9.3
2019-02-19T11:05:17.734Z,7.5
2019-02-19T11:10:16.857Z,10.1
2019-02-19T11:15:42.872Z,9.5
2019-02-19T11:20:21.994Z,9.3
2019-02-19T11:25:16.885Z,7.8
2019-02-19T11:30:16.914Z,9.1
2019-02-19T11:35:16.882Z,9.9
2019-02-19T11:40:22.304Z,9.2
2019-02-19T11:45:17.244Z,9.1
2019-02-19T11:50:17.198Z,9.3
2019-02-19T11:55:17.175Z,9.4
2019-02-19T12:00:17.106Z,9.3
2019-02-19T12:05:17.058Z,9.2
2019-02-19T12:10:17.229Z,6.2
2019-02-19T12:15:18.665Z,9.2
2019-02-19T12:20:17.571Z,8.7
2019-02-19T12:25:17.782Z,8.9
2019-02-19T12:30:17.682Z,8.2
2019-02-19T12:35:17.595Z,9.5
2019-02-19T12:40:17.805Z,9.4
2019-02-19T12:45:17.942Z,9.5
2019-02-19T12:50:16.941Z,9.1
2019-02-19T12:55:26.880Z,9
2019-02-19T13:00:16.854Z,10.3
2019-02-19T13:05:17.792Z,9.1
2019-02-19T13:10:21.975Z,9.3
2019-02-19T13:15:16.893Z,5.6
2019-02-19T13:20:17.050Z,10
2019-02-19T13:25:17.220Z,9.7
2019-02-19T13:30:17.200Z,9.7
2019-02-19T13:35:17.542Z,6.7
2019-02-19T13:40:22.794Z,10.1
2019-02-19T13:45:17.981Z,9.9
2019-02-19T13:50:16.991Z,9.6
2019-02-19T13:55:21.960Z,9.6
2019-02-19T14:00:16.900Z,9
2019-02-19T14:05:16.899Z,9.3
2019-02-19T14:10:17.039Z,8.6
2019-02-19T14:15:21.952Z,8.7
2019-02-19T14:20:17.308Z,8.6
2019-02-19T14:25:17.441Z,8.3
2019-02-19T14:30:17.362Z,8.5
2019-02-19T14:35:22.350Z,7.4
2019-02-19T14:40:17.754Z,7.4
2019-02-19T14:45:17.763Z,7.3
2019-02-19T14:50:22.688Z,7
2019-02-19T14:55:17.581Z,5.5
2019-02-19T15:00:17.538Z,6.4
2019-02-19T15:05:18.643Z,1.9
2019-02-19T15:10:17.762Z,4.8
2019-02-19T15:15:17.679Z,4.7
2019-02-19T15:20:17.838Z,5
2019-02-19T15:25:17.768Z,5.8
2019-02-19T15:30:17.697Z,5.2
2019-02-19T15:35:18.677Z,5.4
2019-02-19T15:40:17.807Z,5.8
2019-02-19T15:45:17.715Z,5.9
2019-02-19T15:50:17.595Z,3.3
2019-02-19T15:55:17.773Z,6.1
2019-02-19T16:00:17.688Z,6.6
2019-02-19T16:05:17.656Z,6.4
2019-02-19T16:10:17.826Z,6.6
2019-02-19T16:15:17.754Z,6.5
2019-02-19T16:20:16.878Z,6.5
2019-02-19T16:25:17.808Z,6.7
2019-02-19T16:30:17.716Z,6.5
2019-02-19T16:35:17.634Z,7.6
2019-02-19T16:40:17.822Z,7.6
2019-02-19T16:45:17.802Z,6.5
2019-02-19T16:50:17.704Z,7.6
2019-02-19T16:55:17.650Z,8
2019-02-19T17:00:17.561Z,7.6
2019-02-19T17:05:17.502Z,7.6
2019-02-19T17:10:17.659Z,7.7
2019-02-19T17:15:22.743Z,3.2
2019-02-19T17:20:29.575Z,7.2
2019-02-19T17:25:17.591Z,6.9
2019-02-19T17:30:17.495Z,5
2019-02-19T17:35:17.411Z,5.1
2019-02-19T17:40:17.585Z,7
2019-02-19T17:45:17.500Z,6.5
2019-02-19T17:50:17.411Z,6.1
2019-02-19T17:55:17.379Z,6.3
2019-02-19T18:00:17.518Z,6.6
2019-02-19T18:05:17.433Z,6.2
2019-02-19T18:10:17.588Z,5.8
2019-02-19T18:15:17.510Z,5.9
2019-02-19T18:20:17.631Z,6.4
2019-02-19T18:25:17.571Z,5.8
2019-02-19T18:30:17.660Z,4.2
2019-02-19T18:35:17.726Z,7.1
2019-02-19T18:40:16.880Z,5.5
2019-02-19T18:45:16.877Z,6.7
2019-02-19T18:50:17.777Z,7.3
2019-02-19T18:55:17.656Z,4.3
2019-02-19T19:00:17.575Z,7.5
2019-02-19T19:05:17.759Z,7
2019-02-19T19:10:17.093Z,7
2019-02-19T19:15:17.005Z,7
2019-02-19T19:20:17.074Z,5.9
2019-02-19T19:25:16.997Z,6.5
2019-02-19T19:30:21.955Z,5.6
2019-02-19T19:35:16.885Z,7.1
2019-02-19T19:40:16.986Z,4.7
2019-02-19T19:45:18.251Z,4.1
2019-02-19T19:50:22.373Z,6.8
2019-02-19T19:55:17.290Z,6.1
2019-02-19T20:00:17.239Z,6.4
2019-02-19T20:05:17.395Z,5
2019-02-19T20:10:17.521Z,6.1
2019-02-19T20:15:17.470Z,6.9
2019-02-19T20:20:17.821Z,6.9
2019-02-19T20:25:17.725Z,4.3
2019-02-19T20:30:17.719Z,6.9
2019-02-19T20:35:18.704Z,6.5
2019-02-19T20:40:16.898Z,6.9
2019-02-19T20:45:16.986Z,6.6
2019-02-19T20:50:16.981Z,6.2
2019-02-19T20:55:16.910Z,3.8
2019-02-19T21:00:16.880Z,7.4
2019-02-19T21:05:17.790Z,4.6
2019-02-19T21:10:16.986Z,7.4
2019-02-19T21:15:16.932Z,6.9
2019-02-19T21:20:22.229Z,6
2019-02-19T21:25:18.236Z,7.6
2019-02-19T21:30:17.176Z,7.9
2019-02-19T21:35:17.079Z,4.4
2019-02-19T21:40:17.249Z,8.5
2019-02-19T21:45:17.168Z,8.2
2019-02-19T21:50:17.051Z,6.7
2019-02-19T21:55:16.994Z,5.6
2019-02-19T22:00:16.986Z,8.4
2019-02-19T22:05:22.164Z,9.2
2019-02-19T22:10:17.316Z,9.3
2019-02-19T22:15:17.234Z,7.8
2019-02-19T22:20:17.592Z,9.1
2019-02-19T22:25:17.494Z,6.1
2019-02-19T22:30:17.394Z,9.1
2019-02-19T22:35:17.380Z,10
2019-02-19T22:40:17.562Z,5.5
2019-02-19T22:45:22.766Z,10.6
2019-02-19T22:50:23.011Z,10.3
2019-02-19T22:55:18.457Z,8.6
2019-02-19T23:00:17.402Z,10.6
2019-02-19T23:05:18.472Z,11.4
2019-02-19T23:10:17.641Z,12
2019-02-19T23:15:17.720Z,7.4
2019-02-19T23:20:16.858Z,11.5
2019-02-19T23:25:22.801Z,12.3
2019-02-19T23:30:17.709Z,9.6
2019-02-19T23:35:17.643Z,12.9
2019-02-19T23:40:17.869Z,12.7
2019-02-19T23:45:17.803Z,10.1
2019-02-19T23:50:17.807Z,12.9
2019-02-19T23:55:27.748Z,9.8
